sensor_id;sensor_type;location;lat;lon;timestamp;temperature;humidity
25741;DHT22;13592;50.838;4.412;2023-02-10T00:04:04;6.40;99.90
25741;DHT22;13592;50.838;4.412;2023-02-10T00:06:41;6.20;99.90
25741;DHT22;13592;50.838;4.412;2023-02-10T00:11:40;6.30;99.90
25741;DHT22;13592;50.838;4.412;2023-02-10T00:14:36;6.20;99.90
25741;DHT22;13592;50.838;4.412;2023-02-10T00:17:01;6.00;99.90
25741;DHT22;13592;50.838;4.412;2023-02-10T00:19:33;6.30;99.90
25741;DHT22;13592;50.838;4.412;2023-02-10T00:22:00;6.00;99.90
25741;DHT22;13592;50.838;4.412;2023-02-10T00:27:01;6.00;99.90
25741;DHT22;13592;50.838;4.412;2023-02-10T00:29:29;6.00;99.90
25741;DHT22;13592;50.838;4.412;2023-02-10T00:31:57;6.20;99.90
25741;DHT22;13592;50.838;4.412;2023-02-10T00:34:32;6.40;99.90
25741;DHT22;13592;50.838;4.412;2023-02-10T00:36:58;6.50;99.90
25741;DHT22;13592;50.838;4.412;2023-02-10T00:39:35;6.50;99.90
25741;DHT22;13592;50.838;4.412;2023-02-10T00:44:57;6.30;99.90
25741;DHT22;13592;50.838;4.412;2023-02-10T00:47:24;6.10;99.90
25741;DHT22;13592;50.838;4.412;2023-02-10T00:49:53;6.10;99.90
25741;DHT22;13592;50.838;4.412;2023-02-10T00:52:18;6.30;99.90
25741;DHT22;13592;50.838;4.412;2023-02-10T00:54:57;6.50;99.90
25741;DHT22;13592;50.838;4.412;2023-02-10T00:57:26;6.20;99.90
25741;DHT22;13592;50.838;4.412;2023-02-10T00:59:52;6.20;99.90
25741;DHT22;13592;50.838;4.412;2023-02-10T01:04:46;6.10;99.90
25741;DHT22;13592;50.838;4.412;2023-02-10T01:07:13;6.00;99.90
25741;DHT22;13592;50.838;4.412;2023-02-10T01:09:40;6.20;99.90
25741;DHT22;13592;50.838;4.412;2023-02-10T01:12:08;6.20;99.90
25741;DHT22;13592;50.838;4.412;2023-02-10T01:14:34;6.30;99.90
25741;DHT22;13592;50.838;4.412;2023-02-10T01:16:59;6.30;99.90
25741;DHT22;13592;50.838;4.412;2023-02-10T01:19:29;6.20;99.90
25741;DHT22;13592;50.838;4.412;2023-02-10T01:21:57;6.00;99.90
25741;DHT22;13592;50.838;4.412;2023-02-10T01:24:30;6.20;99.90
25741;DHT22;13592;50.838;4.412;2023-02-10T01:26:56;6.00;99.90
25741;DHT22;13592;50.838;4.412;2023-02-10T01:31:57;6.20;99.90
25741;DHT22;13592;50.838;4.412;2023-02-10T01:34:25;6.50;99.90
25741;DHT22;13592;50.838;4.412;2023-02-10T01:37:03;6.60;99.90
25741;DHT22;13592;50.838;4.412;2023-02-10T01:39:38;6.50;99.90
25741;DHT22;13592;50.838;4.412;2023-02-10T01:47:53;6.30;99.90
25741;DHT22;13592;50.838;4.412;2023-02-10T01:53:18;6.10;99.90
25741;DHT22;13592;50.838;4.412;2023-02-10T01:58:47;6.00;99.90
25741;DHT22;13592;50.838;4.412;2023-02-10T02:01:26;6.00;99.90
25741;DHT22;13592;50.838;4.412;2023-02-10T02:03:54;6.10;99.90
25741;DHT22;13592;50.838;4.412;2023-02-10T02:08:48;6.10;99.90
25741;DHT22;13592;50.838;4.412;2023-02-10T02:14:23;6.50;99.90
25741;DHT22;13592;50.838;4.412;2023-02-10T02:28:25;6.50;99.90
25741;DHT22;13592;50.838;4.412;2023-02-10T02:36:41;6.80;99.90
25741;DHT22;13592;50.838;4.412;2023-02-10T02:39:09;6.70;99.90
25741;DHT22;13592;50.838;4.412;2023-02-10T02:41:40;6.40;99.90
25741;DHT22;13592;50.838;4.412;2023-02-10T02:44:12;6.30;99.90
25741;DHT22;13592;50.838;4.412;2023-02-10T02:49:53;6.00;99.90
25741;DHT22;13592;50.838;4.412;2023-02-10T02:52:31;6.10;99.90
25741;DHT22;13592;50.838;4.412;2023-02-10T02:55:03;6.10;99.90
25741;DHT22;13592;50.838;4.412;2023-02-10T02:57:37;6.20;99.90
25741;DHT22;13592;50.838;4.412;2023-02-10T03:00:09;6.30;99.90
25741;DHT22;13592;50.838;4.412;2023-02-10T03:02:41;6.10;99.90
25741;DHT22;13592;50.838;4.412;2023-02-10T03:05:19;6.20;99.90
25741;DHT22;13592;50.838;4.412;2023-02-10T03:07:47;6.20;99.90
25741;DHT22;13592;50.838;4.412;2023-02-10T03:10:13;6.20;99.90
25741;DHT22;13592;50.838;4.412;2023-02-10T03:12:47;6.40;99.90
25741;DHT22;13592;50.838;4.412;2023-02-10T03:15:23;6.50;99.90
25741;DHT22;13592;50.838;4.412;2023-02-10T03:17:50;6.60;99.90
25741;DHT22;13592;50.838;4.412;2023-02-10T03:20:21;6.90;99.90
25741;DHT22;13592;50.838;4.412;2023-02-10T03:22:50;6.80;99.90
25741;DHT22;13592;50.838;4.412;2023-02-10T03:25:16;6.50;99.90
25741;DHT22;13592;50.838;4.412;2023-02-10T03:27:50;6.60;99.90
25741;DHT22;13592;50.838;4.412;2023-02-10T03:30:18;6.70;99.90
25741;DHT22;13592;50.838;4.412;2023-02-10T03:32:50;6.60;99.90
25741;DHT22;13592;50.838;4.412;2023-02-10T03:35:36;6.20;99.90
25741;DHT22;13592;50.838;4.412;2023-02-10T03:46:08;6.20;99.90
25741;DHT22;13592;50.838;4.412;2023-02-10T03:48:40;6.00;99.90
25741;DHT22;13592;50.838;4.412;2023-02-10T03:51:18;5.70;99.90
25741;DHT22;13592;50.838;4.412;2023-02-10T03:53:47;5.60;99.90
25741;DHT22;13592;50.838;4.412;2023-02-10T03:56:15;5.70;99.90
25741;DHT22;13592;50.838;4.412;2023-02-10T03:58:40;5.90;99.90
25741;DHT22;13592;50.838;4.412;2023-02-10T04:03:59;6.30;99.90
25741;DHT22;13592;50.838;4.412;2023-02-10T04:06:27;5.80;99.90
25741;DHT22;13592;50.838;4.412;2023-02-10T04:08:58;6.00;99.90
25741;DHT22;13592;50.838;4.412;2023-02-10T04:11:40;6.00;99.90
25741;DHT22;13592;50.838;4.412;2023-02-10T04:14:17;5.70;99.90
25741;DHT22;13592;50.838;4.412;2023-02-10T04:16:43;5.80;99.90
25741;DHT22;13592;50.838;4.412;2023-02-10T04:19:22;5.80;99.90
25741;DHT22;13592;50.838;4.412;2023-02-10T04:21:50;5.80;99.90
25741;DHT22;13592;50.838;4.412;2023-02-10T04:24:15;5.90;99.90
25741;DHT22;13592;50.838;4.412;2023-02-10T04:26:49;6.30;99.90
25741;DHT22;13592;50.838;4.412;2023-02-10T04:29:24;6.30;99.90
25741;DHT22;13592;50.838;4.412;2023-02-10T04:40:33;6.60;99.90
25741;DHT22;13592;50.838;4.412;2023-02-10T04:43:11;6.40;99.90
25741;DHT22;13592;50.838;4.412;2023-02-10T04:45:56;6.10;99.90
25741;DHT22;13592;50.838;4.412;2023-02-10T04:48:25;6.00;99.90
25741;DHT22;13592;50.838;4.412;2023-02-10T04:53:36;5.90;99.90
25741;DHT22;13592;50.838;4.412;2023-02-10T04:58:47;5.50;99.90
25741;DHT22;13592;50.838;4.412;2023-02-10T05:07:11;5.90;99.90
25741;DHT22;13592;50.838;4.412;2023-02-10T05:09:50;5.70;99.90
25741;DHT22;13592;50.838;4.412;2023-02-10T05:12:15;5.80;99.90
25741;DHT22;13592;50.838;4.412;2023-02-10T05:17:34;5.90;99.90
25741;DHT22;13592;50.838;4.412;2023-02-10T05:20:00;6.10;99.90
25741;DHT22;13592;50.838;4.412;2023-02-10T05:22:25;5.90;99.90
25741;DHT22;13592;50.838;4.412;2023-02-10T05:24:56;5.70;99.90
25741;DHT22;13592;50.838;4.412;2023-02-10T05:29:55;5.90;99.90
25741;DHT22;13592;50.838;4.412;2023-02-10T05:32:23;5.70;99.90
25741;DHT22;13592;50.838;4.412;2023-02-10T05:34:51;5.60;99.90
25741;DHT22;13592;50.838;4.412;2023-02-10T05:37:20;5.90;99.90
25741;DHT22;13592;50.838;4.412;2023-02-10T05:39:47;5.90;99.90
25741;DHT22;13592;50.838;4.412;2023-02-10T05:42:13;5.80;99.90
25741;DHT22;13592;50.838;4.412;2023-02-10T05:44:42;5.80;99.90
25741;DHT22;13592;50.838;4.412;2023-02-10T05:47:08;5.80;99.90
25741;DHT22;13592;50.838;4.412;2023-02-10T05:49:36;5.80;99.90
25741;DHT22;13592;50.838;4.412;2023-02-10T05:52:03;6.00;99.90
25741;DHT22;13592;50.838;4.412;2023-02-10T05:54:50;5.70;99.90
25741;DHT22;13592;50.838;4.412;2023-02-10T05:57:18;5.70;99.90
25741;DHT22;13592;50.838;4.412;2023-02-10T05:59:46;5.60;99.90
25741;DHT22;13592;50.838;4.412;2023-02-10T06:02:12;5.50;99.90
25741;DHT22;13592;50.838;4.412;2023-02-10T06:04:40;5.40;99.90
25741;DHT22;13592;50.838;4.412;2023-02-10T06:07:05;5.40;99.90
25741;DHT22;13592;50.838;4.412;2023-02-10T06:09:31;5.40;99.90
25741;DHT22;13592;50.838;4.412;2023-02-10T06:11:59;5.60;99.90
25741;DHT22;13592;50.838;4.412;2023-02-10T06:14:26;5.50;99.90
25741;DHT22;13592;50.838;4.412;2023-02-10T06:16:52;5.40;99.90
25741;DHT22;13592;50.838;4.412;2023-02-10T06:19:19;5.40;99.90
25741;DHT22;13592;50.838;4.412;2023-02-10T06:21:45;5.30;99.90
25741;DHT22;13592;50.838;4.412;2023-02-10T06:24:12;5.20;99.90
25741;DHT22;13592;50.838;4.412;2023-02-10T06:26:37;5.20;99.90
25741;DHT22;13592;50.838;4.412;2023-02-10T06:29:03;5.10;99.90
25741;DHT22;13592;50.838;4.412;2023-02-10T06:31:29;5.10;99.90
25741;DHT22;13592;50.838;4.412;2023-02-10T06:33:55;5.10;99.90
25741;DHT22;13592;50.838;4.412;2023-02-10T06:38:50;5.40;99.90
25741;DHT22;13592;50.838;4.412;2023-02-10T06:41:27;5.30;99.90
25741;DHT22;13592;50.838;4.412;2023-02-10T06:43:54;5.50;99.90
25741;DHT22;13592;50.838;4.412;2023-02-10T06:46:22;5.60;99.90
25741;DHT22;13592;50.838;4.412;2023-02-10T06:49:04;5.70;99.90
25741;DHT22;13592;50.838;4.412;2023-02-10T06:51:31;5.60;99.90
25741;DHT22;13592;50.838;4.412;2023-02-10T06:53:58;5.40;99.90
25741;DHT22;13592;50.838;4.412;2023-02-10T06:56:25;5.20;99.90
25741;DHT22;13592;50.838;4.412;2023-02-10T06:58:55;5.20;99.90
25741;DHT22;13592;50.838;4.412;2023-02-10T07:01:20;5.30;99.90
25741;DHT22;13592;50.838;4.412;2023-02-10T07:04:01;5.20;99.90
25741;DHT22;13592;50.838;4.412;2023-02-10T07:06:27;5.40;99.90
25741;DHT22;13592;50.838;4.412;2023-02-10T07:08:53;5.30;99.90
25741;DHT22;13592;50.838;4.412;2023-02-10T07:14:07;5.50;99.90
25741;DHT22;13592;50.838;4.412;2023-02-10T07:16:35;5.60;99.90
25741;DHT22;13592;50.838;4.412;2023-02-10T07:19:14;5.80;99.90
25741;DHT22;13592;50.838;4.412;2023-02-10T07:21:40;5.80;99.90
25741;DHT22;13592;50.838;4.412;2023-02-10T07:24:07;5.80;99.90
25741;DHT22;13592;50.838;4.412;2023-02-10T07:26:38;5.70;99.90
25741;DHT22;13592;50.838;4.412;2023-02-10T07:29:04;5.80;99.90
25741;DHT22;13592;50.838;4.412;2023-02-10T07:31:30;5.80;99.90
25741;DHT22;13592;50.838;4.412;2023-02-10T07:34:01;5.80;99.90
25741;DHT22;13592;50.838;4.412;2023-02-10T07:38:58;5.90;99.90
25741;DHT22;13592;50.838;4.412;2023-02-10T07:41:25;5.90;99.90
25741;DHT22;13592;50.838;4.412;2023-02-10T07:43:51;6.00;99.90
25741;DHT22;13592;50.838;4.412;2023-02-10T07:46:18;5.90;99.90
25741;DHT22;13592;50.838;4.412;2023-02-10T07:51:15;6.10;99.90
25741;DHT22;13592;50.838;4.412;2023-02-10T07:56:23;6.30;99.90
25741;DHT22;13592;50.838;4.412;2023-02-10T07:58:51;6.60;99.90
25741;DHT22;13592;50.838;4.412;2023-02-10T08:01:17;6.60;99.90
25741;DHT22;13592;50.838;4.412;2023-02-10T08:03:48;6.50;99.90
25741;DHT22;13592;50.838;4.412;2023-02-10T08:08:50;6.60;99.90
25741;DHT22;13592;50.838;4.412;2023-02-10T08:11:19;6.70;99.90
25741;DHT22;13592;50.838;4.412;2023-02-10T08:13:45;6.70;99.90
25741;DHT22;13592;50.838;4.412;2023-02-10T08:16:12;7.00;99.90
25741;DHT22;13592;50.838;4.412;2023-02-10T08:18:38;7.10;99.90
25741;DHT22;13592;50.838;4.412;2023-02-10T08:21:10;7.40;99.90
25741;DHT22;13592;50.838;4.412;2023-02-10T08:23:36;7.40;99.90
25741;DHT22;13592;50.838;4.412;2023-02-10T08:26:05;7.40;99.90
25741;DHT22;13592;50.838;4.412;2023-02-10T08:28:34;7.50;99.90
25741;DHT22;13592;50.838;4.412;2023-02-10T08:31:07;7.60;99.90
25741;DHT22;13592;50.838;4.412;2023-02-10T08:33:35;7.60;99.90
25741;DHT22;13592;50.838;4.412;2023-02-10T08:36:05;7.50;99.90
25741;DHT22;13592;50.838;4.412;2023-02-10T08:38:32;7.30;99.90
25741;DHT22;13592;50.838;4.412;2023-02-10T08:41:00;7.20;99.90
25741;DHT22;13592;50.838;4.412;2023-02-10T08:43:26;7.50;99.90
25741;DHT22;13592;50.838;4.412;2023-02-10T08:46:02;7.30;99.90
25741;DHT22;13592;50.838;4.412;2023-02-10T08:48:32;7.40;99.90
25741;DHT22;13592;50.838;4.412;2023-02-10T08:56:03;7.40;99.90
25741;DHT22;13592;50.838;4.412;2023-02-10T08:58:29;7.40;99.90
25741;DHT22;13592;50.838;4.412;2023-02-10T09:00:55;7.20;99.90
25741;DHT22;13592;50.838;4.412;2023-02-10T09:03:21;7.40;99.90
25741;DHT22;13592;50.838;4.412;2023-02-10T09:05:47;7.20;99.90
25741;DHT22;13592;50.838;4.412;2023-02-10T09:08:16;7.10;99.90
25741;DHT22;13592;50.838;4.412;2023-02-10T09:10:45;7.10;99.90
25741;DHT22;13592;50.838;4.412;2023-02-10T09:13:11;7.00;99.90
25741;DHT22;13592;50.838;4.412;2023-02-10T09:15:57;7.10;99.90
25741;DHT22;13592;50.838;4.412;2023-02-10T09:18:22;7.00;99.90
25741;DHT22;13592;50.838;4.412;2023-02-10T09:20:48;7.10;99.90
25741;DHT22;13592;50.838;4.412;2023-02-10T09:23:13;6.70;99.90
25741;DHT22;13592;50.838;4.412;2023-02-10T09:25:59;6.70;99.90
25741;DHT22;13592;50.838;4.412;2023-02-10T09:28:26;7.20;99.90
25741;DHT22;13592;50.838;4.412;2023-02-10T09:30:53;7.20;99.90
25741;DHT22;13592;50.838;4.412;2023-02-10T09:33:21;7.10;99.90
25741;DHT22;13592;50.838;4.412;2023-02-10T09:38:19;7.30;99.90
25741;DHT22;13592;50.838;4.412;2023-02-10T09:49:12;7.10;99.90
25741;DHT22;13592;50.838;4.412;2023-02-10T09:54:17;6.90;99.90
25741;DHT22;13592;50.838;4.412;2023-02-10T09:56:45;7.20;99.90
25741;DHT22;13592;50.838;4.412;2023-02-10T09:59:12;7.30;99.90
25741;DHT22;13592;50.838;4.412;2023-02-10T10:01:41;7.30;99.90
25741;DHT22;13592;50.838;4.412;2023-02-10T10:04:08;7.20;99.90
25741;DHT22;13592;50.838;4.412;2023-02-10T10:06:43;7.20;99.90
25741;DHT22;13592;50.838;4.412;2023-02-10T10:11:45;7.00;99.90
25741;DHT22;13592;50.838;4.412;2023-02-10T10:14:22;7.10;99.90
25741;DHT22;13592;50.838;4.412;2023-02-10T10:21:55;7.40;99.90
25741;DHT22;13592;50.838;4.412;2023-02-10T10:29:48;7.70;99.90
25741;DHT22;13592;50.838;4.412;2023-02-10T10:34:52;7.60;99.90
25741;DHT22;13592;50.838;4.412;2023-02-10T10:37:22;8.00;99.90
25741;DHT22;13592;50.838;4.412;2023-02-10T10:40:04;8.10;99.90
25741;DHT22;13592;50.838;4.412;2023-02-10T10:42:43;7.90;99.90
25741;DHT22;13592;50.838;4.412;2023-02-10T10:51:03;8.30;99.90
25741;DHT22;13592;50.838;4.412;2023-02-10T10:56:55;8.20;99.90
25741;DHT22;13592;50.838;4.412;2023-02-10T10:59:37;8.10;99.90
25741;DHT22;13592;50.838;4.412;2023-02-10T11:02:19;8.20;99.90
25741;DHT22;13592;50.838;4.412;2023-02-10T11:07:51;8.30;99.90
25741;DHT22;13592;50.838;4.412;2023-02-10T11:13:16;7.90;99.90
25741;DHT22;13592;50.838;4.412;2023-02-10T11:18:33;7.90;99.90
25741;DHT22;13592;50.838;4.412;2023-02-10T11:21:04;8.00;99.90
25741;DHT22;13592;50.838;4.412;2023-02-10T11:23:35;8.10;99.90
25741;DHT22;13592;50.838;4.412;2023-02-10T11:26:03;7.90;99.90
25741;DHT22;13592;50.838;4.412;2023-02-10T11:36:33;8.00;99.90
25741;DHT22;13592;50.838;4.412;2023-02-10T11:39:01;7.90;99.90
25741;DHT22;13592;50.838;4.412;2023-02-10T11:41:28;7.80;99.90
25741;DHT22;13592;50.838;4.412;2023-02-10T11:43:55;7.80;99.90
25741;DHT22;13592;50.838;4.412;2023-02-10T11:46:33;7.80;99.90
25741;DHT22;13592;50.838;4.412;2023-02-10T11:49:03;8.00;99.90
25741;DHT22;13592;50.838;4.412;2023-02-10T11:51:32;8.10;99.90
25741;DHT22;13592;50.838;4.412;2023-02-10T11:53:59;8.00;99.90
25741;DHT22;13592;50.838;4.412;2023-02-10T11:56:40;8.00;99.90
25741;DHT22;13592;50.838;4.412;2023-02-10T12:01:59;8.10;99.90
25741;DHT22;13592;50.838;4.412;2023-02-10T12:09:57;8.40;99.90
25741;DHT22;13592;50.838;4.412;2023-02-10T12:18:00;8.50;99.90
25741;DHT22;13592;50.838;4.412;2023-02-10T12:38:46;8.90;99.90
25741;DHT22;13592;50.838;4.412;2023-02-10T12:41:24;8.80;99.90
25741;DHT22;13592;50.838;4.412;2023-02-10T12:52:05;8.30;99.90
25741;DHT22;13592;50.838;4.412;2023-02-10T12:54:39;8.40;99.90
25741;DHT22;13592;50.838;4.412;2023-02-10T12:57:20;8.70;99.90
25741;DHT22;13592;50.838;4.412;2023-02-10T12:59:58;8.60;99.90
25741;DHT22;13592;50.838;4.412;2023-02-10T13:02:46;8.80;99.90
25741;DHT22;13592;50.838;4.412;2023-02-10T13:05:20;8.70;99.90
25741;DHT22;13592;50.838;4.412;2023-02-10T13:08:10;8.70;99.90
25741;DHT22;13592;50.838;4.412;2023-02-10T13:10:38;8.90;99.90
25741;DHT22;13592;50.838;4.412;2023-02-10T13:13:27;8.80;99.90
25741;DHT22;13592;50.838;4.412;2023-02-10T13:16:04;8.60;99.90
25741;DHT22;13592;50.838;4.412;2023-02-10T13:18:32;8.60;99.90
25741;DHT22;13592;50.838;4.412;2023-02-10T13:21:19;8.70;99.90
25741;DHT22;13592;50.838;4.412;2023-02-10T13:23:48;8.70;99.90
25741;DHT22;13592;50.838;4.412;2023-02-10T13:26:34;8.60;99.90
25741;DHT22;13592;50.838;4.412;2023-02-10T13:29:09;8.50;99.90
25741;DHT22;13592;50.838;4.412;2023-02-10T13:36:43;8.50;99.90
25741;DHT22;13592;50.838;4.412;2023-02-10T13:39:23;8.50;99.90
25741;DHT22;13592;50.838;4.412;2023-02-10T13:41:51;8.30;99.90
25741;DHT22;13592;50.838;4.412;2023-02-10T13:44:25;8.10;99.90
25741;DHT22;13592;50.838;4.412;2023-02-10T13:47:12;8.30;99.90
25741;DHT22;13592;50.838;4.412;2023-02-10T13:52:18;8.20;99.90
25741;DHT22;13592;50.838;4.412;2023-02-10T13:54:53;8.20;99.90
25741;DHT22;13592;50.838;4.412;2023-02-10T13:57:28;8.30;99.90
25741;DHT22;13592;50.838;4.412;2023-02-10T14:00:04;8.30;99.90
25741;DHT22;13592;50.838;4.412;2023-02-10T14:02:30;8.50;99.90
25741;DHT22;13592;50.838;4.412;2023-02-10T14:04:56;8.60;99.90
25741;DHT22;13592;50.838;4.412;2023-02-10T14:12:54;8.40;99.90
25741;DHT22;13592;50.838;4.412;2023-02-10T14:15:29;8.60;99.90
25741;DHT22;13592;50.838;4.412;2023-02-10T14:18:03;8.70;99.90
25741;DHT22;13592;50.838;4.412;2023-02-10T14:20:38;8.70;99.90
25741;DHT22;13592;50.838;4.412;2023-02-10T14:23:06;8.70;99.90
25741;DHT22;13592;50.838;4.412;2023-02-10T14:25:39;8.80;99.90
25741;DHT22;13592;50.838;4.412;2023-02-10T14:28:29;8.70;99.90
25741;DHT22;13592;50.838;4.412;2023-02-10T14:30:56;8.70;99.90
25741;DHT22;13592;50.838;4.412;2023-02-10T14:33:27;8.70;99.90
25741;DHT22;13592;50.838;4.412;2023-02-10T14:36:01;8.80;99.90
25741;DHT22;13592;50.838;4.412;2023-02-10T14:38:32;8.90;99.90
25741;DHT22;13592;50.838;4.412;2023-02-10T14:41:02;9.00;99.90
25741;DHT22;13592;50.838;4.412;2023-02-10T14:46:27;9.10;99.90
25741;DHT22;13592;50.838;4.412;2023-02-10T14:49:00;8.80;99.90
25741;DHT22;13592;50.838;4.412;2023-02-10T14:51:28;8.70;99.90
25741;DHT22;13592;50.838;4.412;2023-02-10T14:53:53;8.70;99.90
25741;DHT22;13592;50.838;4.412;2023-02-10T14:56:24;8.70;99.90
25741;DHT22;13592;50.838;4.412;2023-02-10T14:58:51;8.80;99.90
25741;DHT22;13592;50.838;4.412;2023-02-10T15:03:48;9.10;99.90
25741;DHT22;13592;50.838;4.412;2023-02-10T15:06:16;9.30;99.90
25741;DHT22;13592;50.838;4.412;2023-02-10T15:13:40;9.00;99.90
25741;DHT22;13592;50.838;4.412;2023-02-10T15:16:09;9.00;99.90
25741;DHT22;13592;50.838;4.412;2023-02-10T15:18:39;8.90;99.90
25741;DHT22;13592;50.838;4.412;2023-02-10T15:21:21;8.90;99.90
25741;DHT22;13592;50.838;4.412;2023-02-10T15:23:52;8.90;99.90
25741;DHT22;13592;50.838;4.412;2023-02-10T15:26:25;8.70;99.90
25741;DHT22;13592;50.838;4.412;2023-02-10T15:31:27;8.90;99.90
25741;DHT22;13592;50.838;4.412;2023-02-10T15:33:59;8.70;99.90
25741;DHT22;13592;50.838;4.412;2023-02-10T15:36:45;8.50;99.90
25741;DHT22;13592;50.838;4.412;2023-02-10T15:39:28;8.60;99.90
25741;DHT22;13592;50.838;4.412;2023-02-10T15:41:58;8.30;99.90
25741;DHT22;13592;50.838;4.412;2023-02-10T15:44:45;8.30;99.90
25741;DHT22;13592;50.838;4.412;2023-02-10T15:47:21;8.40;99.90
25741;DHT22;13592;50.838;4.412;2023-02-10T15:49:54;8.50;99.90
25741;DHT22;13592;50.838;4.412;2023-02-10T15:52:26;8.50;99.90
25741;DHT22;13592;50.838;4.412;2023-02-10T15:54:52;8.40;99.90
25741;DHT22;13592;50.838;4.412;2023-02-10T15:57:22;8.60;99.90
25741;DHT22;13592;50.838;4.412;2023-02-10T15:59:48;8.60;99.90
25741;DHT22;13592;50.838;4.412;2023-02-10T16:02:18;8.90;99.90
25741;DHT22;13592;50.838;4.412;2023-02-10T16:04:47;8.90;99.90
25741;DHT22;13592;50.838;4.412;2023-02-10T16:07:14;8.90;99.90
25741;DHT22;13592;50.838;4.412;2023-02-10T16:09:42;8.50;99.90
25741;DHT22;13592;50.838;4.412;2023-02-10T16:12:11;8.30;99.90
25741;DHT22;13592;50.838;4.412;2023-02-10T16:14:40;8.50;99.90
25741;DHT22;13592;50.838;4.412;2023-02-10T16:17:05;8.50;99.90
25741;DHT22;13592;50.838;4.412;2023-02-10T16:19:33;8.20;99.90
25741;DHT22;13592;50.838;4.412;2023-02-10T16:21:58;8.30;99.90
25741;DHT22;13592;50.838;4.412;2023-02-10T16:24:27;8.20;99.90
25741;DHT22;13592;50.838;4.412;2023-02-10T16:29:23;8.60;99.90
25741;DHT22;13592;50.838;4.412;2023-02-10T16:31:52;8.40;99.90
25741;DHT22;13592;50.838;4.412;2023-02-10T16:34:20;8.30;99.90
25741;DHT22;13592;50.838;4.412;2023-02-10T16:36:46;8.40;99.90
25741;DHT22;13592;50.838;4.412;2023-02-10T16:39:13;8.70;99.90
25741;DHT22;13592;50.838;4.412;2023-02-10T16:41:41;8.80;99.90
25741;DHT22;13592;50.838;4.412;2023-02-10T16:44:09;8.50;99.90
25741;DHT22;13592;50.838;4.412;2023-02-10T16:46:34;8.30;99.90
25741;DHT22;13592;50.838;4.412;2023-02-10T16:49:02;8.60;99.90
25741;DHT22;13592;50.838;4.412;2023-02-10T16:51:31;8.70;99.90
25741;DHT22;13592;50.838;4.412;2023-02-10T16:53:58;8.70;99.90
25741;DHT22;13592;50.838;4.412;2023-02-10T16:56:25;8.70;99.90
25741;DHT22;13592;50.838;4.412;2023-02-10T16:58:53;8.60;99.90
25741;DHT22;13592;50.838;4.412;2023-02-10T17:01:20;8.50;99.90
25741;DHT22;13592;50.838;4.412;2023-02-10T17:03:47;8.50;99.90
25741;DHT22;13592;50.838;4.412;2023-02-10T17:06:19;8.40;99.90
25741;DHT22;13592;50.838;4.412;2023-02-10T17:08:45;8.50;99.90
25741;DHT22;13592;50.838;4.412;2023-02-10T17:11:11;8.50;99.90
25741;DHT22;13592;50.838;4.412;2023-02-10T17:13:37;8.50;99.90
25741;DHT22;13592;50.838;4.412;2023-02-10T17:16:02;8.50;99.90
25741;DHT22;13592;50.838;4.412;2023-02-10T17:20:57;8.50;99.90
25741;DHT22;13592;50.838;4.412;2023-02-10T17:23:22;8.50;99.90
25741;DHT22;13592;50.838;4.412;2023-02-10T17:25:49;8.40;99.90
25741;DHT22;13592;50.838;4.412;2023-02-10T17:28:16;8.20;99.90
25741;DHT22;13592;50.838;4.412;2023-02-10T17:30:43;8.50;99.90
25741;DHT22;13592;50.838;4.412;2023-02-10T17:33:23;8.30;99.90
25741;DHT22;13592;50.838;4.412;2023-02-10T17:35:52;8.40;99.90
25741;DHT22;13592;50.838;4.412;2023-02-10T17:41:06;8.50;99.90
25741;DHT22;13592;50.838;4.412;2023-02-10T17:43:32;8.50;99.90
25741;DHT22;13592;50.838;4.412;2023-02-10T17:45:57;8.50;99.90
25741;DHT22;13592;50.838;4.412;2023-02-10T17:48:23;8.50;99.90
25741;DHT22;13592;50.838;4.412;2023-02-10T17:50:48;8.60;99.90
25741;DHT22;13592;50.838;4.412;2023-02-10T17:53:17;8.80;99.90
25741;DHT22;13592;50.838;4.412;2023-02-10T17:55:56;8.70;99.90
25741;DHT22;13592;50.838;4.412;2023-02-10T17:58:23;8.40;99.90
25741;DHT22;13592;50.838;4.412;2023-02-10T18:00:48;8.40;99.90
25741;DHT22;13592;50.838;4.412;2023-02-10T18:05:43;8.70;99.90
25741;DHT22;13592;50.838;4.412;2023-02-10T18:08:10;8.50;99.90
25741;DHT22;13592;50.838;4.412;2023-02-10T18:10:37;8.50;99.90
25741;DHT22;13592;50.838;4.412;2023-02-10T18:13:04;8.60;99.90
25741;DHT22;13592;50.838;4.412;2023-02-10T18:15:36;8.70;99.90
25741;DHT22;13592;50.838;4.412;2023-02-10T18:18:04;8.60;99.90
25741;DHT22;13592;50.838;4.412;2023-02-10T18:20:31;8.50;99.90
25741;DHT22;13592;50.838;4.412;2023-02-10T18:22:56;8.50;99.90
25741;DHT22;13592;50.838;4.412;2023-02-10T18:25:22;8.40;99.90
25741;DHT22;13592;50.838;4.412;2023-02-10T18:27:51;8.40;99.90
25741;DHT22;13592;50.838;4.412;2023-02-10T18:30:17;8.50;99.90
25741;DHT22;13592;50.838;4.412;2023-02-10T18:32:42;8.40;99.90
25741;DHT22;13592;50.838;4.412;2023-02-10T18:35:11;8.30;99.90
25741;DHT22;13592;50.838;4.412;2023-02-10T18:40:07;8.30;99.90
25741;DHT22;13592;50.838;4.412;2023-02-10T18:45:03;8.50;99.90
25741;DHT22;13592;50.838;4.412;2023-02-10T18:47:30;8.60;99.90
25741;DHT22;13592;50.838;4.412;2023-02-10T18:49:59;8.60;99.90
25741;DHT22;13592;50.838;4.412;2023-02-10T18:52:24;8.70;99.90
25741;DHT22;13592;50.838;4.412;2023-02-10T18:57:19;8.70;99.90
25741;DHT22;13592;50.838;4.412;2023-02-10T18:59:47;8.60;99.90
25741;DHT22;13592;50.838;4.412;2023-02-10T19:02:13;8.50;99.90
25741;DHT22;13592;50.838;4.412;2023-02-10T19:04:41;8.60;99.90
25741;DHT22;13592;50.838;4.412;2023-02-10T19:07:06;8.50;99.90
25741;DHT22;13592;50.838;4.412;2023-02-10T19:09:32;8.60;99.90
25741;DHT22;13592;50.838;4.412;2023-02-10T19:11:58;8.60;99.90
25741;DHT22;13592;50.838;4.412;2023-02-10T19:16:52;8.80;99.90
25741;DHT22;13592;50.838;4.412;2023-02-10T19:19:18;8.90;99.90
25741;DHT22;13592;50.838;4.412;2023-02-10T19:21:46;8.90;99.90
25741;DHT22;13592;50.838;4.412;2023-02-10T19:24:14;8.80;99.90
25741;DHT22;13592;50.838;4.412;2023-02-10T19:26:39;8.70;99.90
25741;DHT22;13592;50.838;4.412;2023-02-10T19:29:08;8.60;99.90
25741;DHT22;13592;50.838;4.412;2023-02-10T19:31:35;8.50;99.90
25741;DHT22;13592;50.838;4.412;2023-02-10T19:34:00;8.70;99.90
25741;DHT22;13592;50.838;4.412;2023-02-10T19:36:26;8.80;99.90
25741;DHT22;13592;50.838;4.412;2023-02-10T19:38:52;8.50;99.90
25741;DHT22;13592;50.838;4.412;2023-02-10T19:41:20;8.50;99.90
25741;DHT22;13592;50.838;4.412;2023-02-10T19:46:15;8.50;99.90
25741;DHT22;13592;50.838;4.412;2023-02-10T19:48:42;8.60;99.90
25741;DHT22;13592;50.838;4.412;2023-02-10T19:51:12;8.70;99.90
25741;DHT22;13592;50.838;4.412;2023-02-10T19:53:38;8.80;99.90
25741;DHT22;13592;50.838;4.412;2023-02-10T19:56:04;8.90;99.90
25741;DHT22;13592;50.838;4.412;2023-02-10T19:58:30;8.80;99.90
25741;DHT22;13592;50.838;4.412;2023-02-10T20:00:57;8.70;99.90
25741;DHT22;13592;50.838;4.412;2023-02-10T20:03:25;8.80;99.90
25741;DHT22;13592;50.838;4.412;2023-02-10T20:05:54;8.90;99.90
25741;DHT22;13592;50.838;4.412;2023-02-10T20:08:20;9.00;99.90
25741;DHT22;13592;50.838;4.412;2023-02-10T20:10:49;9.00;99.90
25741;DHT22;13592;50.838;4.412;2023-02-10T20:13:19;8.90;99.90
25741;DHT22;13592;50.838;4.412;2023-02-10T20:15:47;8.90;99.90